createdAt,value
2017-05-12T00:00:18.763Z,9.10
2017-05-12T00:02:54.007Z,8.73
2017-05-12T00:05:30.146Z,11.55
2017-05-12T00:08:05.286Z,9.57
2017-05-12T00:10:40.525Z,8.85
2017-05-12T00:13:15.671Z,9.45
2017-05-12T00:15:51.531Z,10.27
2017-05-12T00:18:26.727Z,9.68
2017-05-12T00:21:01.836Z,10.37
2017-05-12T00:23:37.753Z,9.25
2017-05-12T00:26:13.094Z,10.70
2017-05-12T00:28:48.323Z,8.72
2017-05-12T00:31:23.407Z,9.27
2017-05-12T00:33:58.608Z,8.45
2017-05-12T00:36:33.674Z,10.10
2017-05-12T00:39:08.748Z,9.73
2017-05-12T00:41:44.695Z,9.13
2017-05-12T00:44:19.971Z,9.97
2017-05-12T00:46:55.395Z,9.08
2017-05-12T00:49:31.465Z,7.92
2017-05-12T00:52:06.907Z,11.70
2017-05-12T00:54:41.942Z,9.17
2017-05-12T00:57:17.274Z,9.40
2017-05-12T00:59:53.247Z,10.47
2017-05-12T01:02:28.447Z,10.25
2017-05-12T01:05:03.809Z,9.30
2017-05-12T01:07:39.266Z,11.87
2017-05-12T01:10:14.390Z,12.82
2017-05-12T01:12:49.824Z,9.70
2017-05-12T01:15:25.071Z,10.15
2017-05-12T01:18:00.306Z,10.35
2017-05-12T01:20:35.471Z,10.97
2017-05-12T01:23:10.915Z,11.35
2017-05-12T01:25:46.202Z,11.13
2017-05-12T01:28:21.430Z,10.90
2017-05-12T01:30:56.702Z,11.85
2017-05-12T01:33:31.922Z,11.90
2017-05-12T01:36:07.297Z,13.70
2017-05-12T01:38:43.194Z,11.80
2017-05-12T01:41:18.383Z,12.57
2017-05-12T01:43:53.691Z,17.92
2017-05-12T01:46:29.062Z,16.50
2017-05-12T01:49:04.411Z,14.20
2017-05-12T01:51:39.758Z,11.42
2017-05-12T01:54:14.847Z,11.88
2017-05-12T01:56:50.151Z,14.07
2017-05-12T01:59:26.074Z,17.68
2017-05-12T02:02:01.337Z,12.72
2017-05-12T02:04:36.855Z,13.67
2017-05-12T02:07:12.807Z,14.27
2017-05-12T02:09:48.083Z,16.75
2017-05-12T02:12:23.401Z,16.88
2017-05-12T02:14:58.900Z,16.83
2017-05-12T02:17:33.892Z,13.35
2017-05-12T02:20:09.517Z,14.83
2017-05-12T02:22:44.758Z,13.62
2017-05-12T02:25:20.094Z,17.37
2017-05-12T02:27:55.440Z,20.17
2017-05-12T02:30:30.681Z,18.53
2017-05-12T02:33:05.923Z,14.92
2017-05-12T02:35:41.256Z,20.00
2017-05-12T02:38:17.211Z,18.27
2017-05-12T02:40:53.476Z,16.50
2017-05-12T02:43:28.634Z,15.83
2017-05-12T02:46:03.981Z,19.72
2017-05-12T02:48:39.135Z,16.40
2017-05-12T02:51:14.400Z,17.25
2017-05-12T02:53:49.659Z,16.30
2017-05-12T02:56:25.120Z,17.73
2017-05-12T02:59:00.277Z,20.90
2017-05-12T03:01:35.697Z,16.47
2017-05-12T03:04:10.883Z,21.20
2017-05-12T03:06:46.103Z,16.72
2017-05-12T03:09:21.275Z,22.70
2017-05-12T03:11:57.271Z,17.92
2017-05-12T03:14:32.487Z,18.60
2017-05-12T03:17:07.903Z,18.62
2017-05-12T03:19:43.222Z,16.82
2017-05-12T03:22:18.490Z,22.40
2017-05-12T03:24:53.796Z,18.28
2017-05-12T03:27:29.074Z,20.62
2017-05-12T03:30:04.331Z,19.52
2017-05-12T03:32:39.719Z,19.78
2017-05-12T03:35:14.841Z,22.95
2017-05-12T03:37:50.095Z,25.12
2017-05-12T03:40:25.318Z,21.08
2017-05-12T03:43:00.511Z,18.95
2017-05-12T03:45:35.698Z,19.57
2017-05-12T03:48:11.248Z,23.08
2017-05-12T03:50:46.499Z,19.55
2017-05-12T03:53:21.614Z,22.37
2017-05-12T03:55:56.721Z,23.58
2017-05-12T03:58:32.160Z,25.92
2017-05-12T04:01:07.294Z,23.90
2017-05-12T04:03:42.741Z,21.85
2017-05-12T04:06:17.785Z,25.40
2017-05-12T04:08:53.012Z,21.33
2017-05-12T04:11:28.940Z,23.33
2017-05-12T04:14:04.520Z,22.23
2017-05-12T04:16:39.716Z,24.08
2017-05-12T04:19:15.552Z,21.82
2017-05-12T04:21:50.782Z,22.62
2017-05-12T04:24:26.705Z,25.67
2017-05-12T04:27:01.855Z,23.65
2017-05-12T04:29:37.251Z,26.08
2017-05-12T04:32:12.423Z,29.40
2017-05-12T04:34:47.708Z,23.97
2017-05-12T04:37:23.673Z,26.02
2017-05-12T04:39:58.804Z,23.97
2017-05-12T04:42:34.064Z,25.28
2017-05-12T04:45:09.336Z,24.37
2017-05-12T04:47:44.551Z,26.17
2017-05-12T04:50:19.828Z,30.27
2017-05-12T04:52:55.014Z,25.53
2017-05-12T04:55:30.283Z,24.10
2017-05-12T04:58:05.596Z,26.15
2017-05-12T05:00:40.802Z,26.33
2017-05-12T05:03:15.972Z,26.93
2017-05-12T05:05:51.288Z,24.50
2017-05-12T05:08:27.174Z,25.07
2017-05-12T05:11:02.532Z,26.70
2017-05-12T05:13:37.730Z,24.60
2017-05-12T05:16:13.822Z,24.23
2017-05-12T05:18:49.071Z,27.53
2017-05-12T05:21:24.607Z,27.47
2017-05-12T05:23:59.872Z,24.27
2017-05-12T05:26:34.990Z,31.85
2017-05-12T05:29:10.900Z,30.57
2017-05-12T05:31:46.303Z,24.48
2017-05-12T05:34:21.491Z,26.92
2017-05-12T05:36:56.918Z,25.12
2017-05-12T05:39:32.927Z,25.38
2017-05-12T05:42:08.145Z,29.75
2017-05-12T05:44:43.402Z,29.27
2017-05-12T05:47:18.949Z,31.25
2017-05-12T05:49:54.082Z,26.17
2017-05-12T05:52:29.357Z,26.15
2017-05-12T05:55:04.555Z,26.10
2017-05-12T05:57:39.767Z,27.08
2017-05-12T06:00:15.060Z,26.00
2017-05-12T06:02:50.280Z,27.83
2017-05-12T06:05:25.530Z,29.98
2017-05-12T06:08:01.570Z,25.20
2017-05-12T06:10:37.006Z,24.35
2017-05-12T06:13:12.147Z,25.78
2017-05-12T06:15:47.954Z,27.42
2017-05-12T06:18:23.210Z,29.28
2017-05-12T06:20:58.261Z,26.92
2017-05-12T06:23:33.368Z,32.50
2017-05-12T06:26:08.626Z,25.65
2017-05-12T06:28:44.292Z,25.43
2017-05-12T06:31:19.447Z,26.40
2017-05-12T06:33:55.796Z,28.77
2017-05-12T06:36:31.023Z,28.10
2017-05-12T06:39:06.282Z,26.23
2017-05-12T06:41:41.527Z,27.77
2017-05-12T06:44:17.048Z,30.02
2017-05-12T06:46:52.166Z,24.80
2017-05-12T06:49:27.691Z,27.02
2017-05-12T06:52:02.759Z,25.73
2017-05-12T06:54:38.213Z,26.42
2017-05-12T06:57:13.294Z,26.05
2017-05-12T06:59:48.410Z,25.53
2017-05-12T07:02:23.515Z,27.55
2017-05-12T07:04:58.852Z,27.47
2017-05-12T07:07:34.122Z,28.23
2017-05-12T07:10:09.644Z,25.47
2017-05-12T07:12:44.904Z,20.97
2017-05-12T07:15:20.127Z,25.77
2017-05-12T07:17:55.306Z,28.37
2017-05-12T07:20:30.668Z,28.77
2017-05-12T07:23:05.955Z,28.90
2017-05-12T07:25:41.052Z,25.27
2017-05-12T07:28:16.195Z,24.48
2017-05-12T07:30:51.354Z,24.77
2017-05-12T07:33:26.511Z,25.12
2017-05-12T07:36:01.836Z,29.10
2017-05-12T07:38:37.115Z,25.08
2017-05-12T07:41:12.351Z,26.92
2017-05-12T07:43:47.531Z,20.87
2017-05-12T07:46:22.883Z,23.40
2017-05-12T07:48:58.710Z,22.47
2017-05-12T07:51:34.051Z,23.32
2017-05-12T07:54:09.983Z,23.60
2017-05-12T07:56:45.075Z,22.47
2017-05-12T07:59:20.227Z,23.58
2017-05-12T08:01:56.167Z,23.80
2017-05-12T08:04:31.426Z,21.95
2017-05-12T08:07:06.691Z,29.47
2017-05-12T08:09:41.958Z,25.62
2017-05-12T08:12:17.791Z,25.17
2017-05-12T08:14:52.852Z,23.00
2017-05-12T08:17:28.247Z,23.62
2017-05-12T08:20:03.538Z,24.57
2017-05-12T08:22:38.867Z,21.73
2017-05-12T08:25:14.148Z,24.45
2017-05-12T08:27:49.465Z,21.98
2017-05-12T08:30:24.775Z,23.90
2017-05-12T08:33:00.110Z,23.75
2017-05-12T08:35:35.431Z,22.10
2017-05-12T08:38:10.743Z,21.60
2017-05-12T08:40:45.962Z,21.55
2017-05-12T08:43:21.787Z,21.23
2017-05-12T08:45:57.067Z,20.35
2017-05-12T08:48:32.099Z,21.25
2017-05-12T08:51:07.253Z,20.93
2017-05-12T08:53:42.482Z,21.23
2017-05-12T08:56:18.925Z,21.02
2017-05-12T08:58:54.119Z,22.03
2017-05-12T09:01:30.026Z,22.12
2017-05-12T09:04:05.276Z,20.90
2017-05-12T09:06:40.735Z,21.47
2017-05-12T09:09:15.864Z,21.68
2017-05-12T09:11:51.190Z,23.65
2017-05-12T09:14:26.342Z,23.83
2017-05-12T09:17:01.596Z,23.38
2017-05-12T09:19:37.566Z,22.13
2017-05-12T09:22:12.690Z,22.63
2017-05-12T09:24:47.900Z,23.27
2017-05-12T09:27:23.176Z,23.37
2017-05-12T09:29:58.672Z,23.02
2017-05-12T09:32:33.882Z,22.98
2017-05-12T09:35:09.058Z,23.52
2017-05-12T09:37:44.317Z,21.22
2017-05-12T09:40:19.514Z,22.12
2017-05-12T09:42:54.857Z,22.35
2017-05-12T09:45:29.854Z,20.98
2017-05-12T09:48:05.771Z,22.67
2017-05-12T09:50:40.991Z,20.12
2017-05-12T09:53:16.199Z,21.18
2017-05-12T09:55:51.287Z,23.40
2017-05-12T09:58:27.518Z,22.08
2017-05-12T10:01:02.760Z,21.03
2017-05-12T10:03:37.910Z,19.97
2017-05-12T10:06:13.094Z,20.98
2017-05-12T10:08:48.399Z,21.28
2017-05-12T10:11:23.510Z,22.27
2017-05-12T10:13:59.384Z,21.25
2017-05-12T10:16:34.545Z,20.75
2017-05-12T10:19:09.855Z,21.08
2017-05-12T10:21:45.653Z,21.87
2017-05-12T10:24:20.949Z,20.72
2017-05-12T10:26:56.097Z,21.62
2017-05-12T10:29:31.327Z,21.73
2017-05-12T10:32:06.410Z,31.73
2017-05-12T10:34:47.542Z,23.83
2017-05-12T10:37:22.810Z,22.93
2017-05-12T10:39:59.144Z,24.27
2017-05-12T10:42:34.352Z,25.68
2017-05-12T10:45:10.331Z,27.88
2017-05-12T10:47:45.668Z,27.72
2017-05-12T10:50:21.093Z,26.77
2017-05-12T10:52:56.233Z,27.60
2017-05-12T10:55:31.396Z,28.53
2017-05-12T10:58:07.254Z,29.87
2017-05-12T11:00:42.454Z,27.98
2017-05-12T11:03:17.531Z,28.38
2017-05-12T11:05:52.934Z,26.63
2017-05-12T11:08:28.036Z,27.53
2017-05-12T11:11:03.444Z,28.97
2017-05-12T11:13:38.538Z,28.47
2017-05-12T11:16:13.647Z,28.28
2017-05-12T11:18:48.879Z,27.68
2017-05-12T11:21:24.113Z,25.63
2017-05-12T11:23:59.275Z,27.85
2017-05-12T11:26:34.675Z,30.27
2017-05-12T11:29:09.787Z,26.02
2017-05-12T11:31:45.099Z,26.55
2017-05-12T11:34:20.278Z,27.20
2017-05-12T11:36:55.783Z,25.63
2017-05-12T11:39:30.974Z,26.15
2017-05-12T11:42:06.228Z,28.97
2017-05-12T11:44:41.502Z,27.65
2017-05-12T11:47:16.815Z,25.83
2017-05-12T11:49:51.857Z,27.40
2017-05-12T11:52:27.216Z,24.55
2017-05-12T11:55:03.103Z,25.08
2017-05-12T11:57:38.207Z,26.12
2017-05-12T12:00:13.283Z,28.38
2017-05-12T12:02:48.598Z,25.28
2017-05-12T12:05:23.790Z,27.42
2017-05-12T12:07:59.292Z,27.12
2017-05-12T12:10:34.545Z,28.40
2017-05-12T12:13:09.803Z,29.08
2017-05-12T12:15:44.855Z,29.78
2017-05-12T12:18:20.032Z,27.37
2017-05-12T12:20:55.271Z,28.80
2017-05-12T12:23:30.479Z,27.73
2017-05-12T12:26:05.670Z,28.07
2017-05-12T12:28:41.059Z,28.30
2017-05-12T12:31:16.099Z,25.93
2017-05-12T12:33:51.251Z,26.02
2017-05-12T12:36:26.418Z,26.45
2017-05-12T12:39:02.524Z,24.45
2017-05-12T12:41:37.770Z,26.47
2017-05-12T12:44:13.080Z,27.10
2017-05-12T12:46:48.155Z,23.87
2017-05-12T12:49:23.572Z,29.00
2017-05-12T12:51:58.764Z,21.52
2017-05-12T12:54:34.062Z,21.50
2017-05-12T12:57:09.176Z,20.22
2017-05-12T12:59:45.241Z,19.37
2017-05-12T13:02:21.187Z,17.92
2017-05-12T13:04:56.621Z,20.22
2017-05-12T13:07:31.893Z,20.38
2017-05-12T13:10:07.217Z,18.10
2017-05-12T13:12:42.417Z,18.40
2017-05-12T13:15:17.763Z,17.37
2017-05-12T13:17:52.962Z,20.20
2017-05-12T13:20:28.163Z,15.20
2017-05-12T13:23:03.399Z,18.42
2017-05-12T13:25:38.995Z,15.72
2017-05-12T13:28:14.222Z,16.55
2017-05-12T13:30:49.534Z,16.23
2017-05-12T13:33:24.745Z,15.68
2017-05-12T13:36:00.047Z,13.77
2017-05-12T13:38:35.168Z,14.40
2017-05-12T13:41:10.227Z,12.88
2017-05-12T13:43:45.268Z,14.48
2017-05-12T13:46:20.603Z,14.72
2017-05-12T13:48:55.826Z,14.67
2017-05-12T13:51:31.299Z,16.20
2017-05-12T13:54:06.598Z,16.38
2017-05-12T13:56:41.767Z,17.87
2017-05-12T13:59:16.953Z,12.97
2017-05-12T14:01:52.543Z,12.28
2017-05-12T14:04:27.614Z,12.58
2017-05-12T14:07:02.764Z,13.93
2017-05-12T14:09:37.987Z,13.15
2017-05-12T14:12:13.194Z,13.47
2017-05-12T14:14:48.191Z,11.00
2017-05-12T14:17:23.406Z,11.73
2017-05-12T14:19:58.628Z,12.77
2017-05-12T14:22:33.747Z,15.17
2017-05-12T14:25:08.914Z,13.75
2017-05-12T14:27:44.157Z,12.62
2017-05-12T14:30:19.303Z,14.72
2017-05-12T14:32:54.607Z,12.75
2017-05-12T14:35:30.523Z,12.63
2017-05-12T14:38:05.746Z,14.93
2017-05-12T14:40:41.578Z,12.17
2017-05-12T14:43:16.674Z,13.02
2017-05-12T14:45:51.827Z,13.97
2017-05-12T14:48:27.829Z,16.12
2017-05-12T14:51:03.010Z,13.15
2017-05-12T14:53:38.962Z,12.98
2017-05-12T14:56:14.156Z,14.17
2017-05-12T14:58:49.626Z,13.07
2017-05-12T15:01:24.670Z,13.30
2017-05-12T15:03:59.896Z,15.77
2017-05-12T15:06:35.055Z,12.30
2017-05-12T15:09:10.363Z,13.15
2017-05-12T15:11:45.457Z,11.37
2017-05-12T15:14:20.659Z,11.50
2017-05-12T15:16:54.999Z,12.00
2017-05-12T15:19:30.263Z,12.10
2017-05-12T15:22:06.238Z,13.88
2017-05-12T15:24:41.485Z,14.57
2017-05-12T15:27:16.724Z,12.38
2017-05-12T15:29:51.995Z,13.07
2017-05-12T15:32:27.226Z,11.42
2017-05-12T15:35:02.455Z,11.77
2017-05-12T15:37:37.686Z,10.35
2017-05-12T15:40:12.913Z,12.25
2017-05-12T15:42:48.106Z,12.27
2017-05-12T15:45:23.423Z,11.80
2017-05-12T15:47:58.688Z,13.13
2017-05-12T15:50:34.715Z,13.12
2017-05-12T15:53:09.917Z,12.37
2017-05-12T15:55:45.130Z,11.37
2017-05-12T15:58:20.276Z,12.88
2017-05-12T16:00:55.590Z,12.05
2017-05-12T16:03:30.800Z,12.73
2017-05-12T16:06:06.144Z,12.20
2017-05-12T16:08:41.372Z,10.60
2017-05-12T16:11:16.746Z,13.62
2017-05-12T16:13:52.083Z,9.87
2017-05-12T16:16:27.383Z,12.50
2017-05-12T16:19:02.555Z,10.03
2017-05-12T16:21:37.769Z,11.15
2017-05-12T16:24:13.578Z,13.00
2017-05-12T16:26:48.867Z,12.77
2017-05-12T16:29:24.080Z,11.25
2017-05-12T16:31:59.885Z,13.30
2017-05-12T16:34:34.899Z,12.05
2017-05-12T16:37:11.655Z,11.65
2017-05-12T16:39:47.786Z,12.60
2017-05-12T16:42:23.111Z,13.50
2017-05-12T16:44:58.395Z,14.02
2017-05-12T16:47:33.470Z,15.12
2017-05-12T16:50:08.560Z,11.88
2017-05-12T16:52:43.871Z,11.38
2017-05-12T16:55:19.964Z,12.92
2017-05-12T16:57:55.196Z,11.25
2017-05-12T17:00:30.536Z,15.02
2017-05-12T17:03:05.726Z,11.02
2017-05-12T17:05:41.734Z,13.13
2017-05-12T17:08:17.699Z,11.05
2017-05-12T17:10:53.643Z,13.57
2017-05-12T17:13:29.028Z,15.23
2017-05-12T17:16:04.171Z,10.18
2017-05-12T17:18:40.280Z,12.37
2017-05-12T17:21:15.872Z,11.67
2017-05-12T17:23:51.951Z,13.75
2017-05-12T17:26:27.115Z,11.95
2017-05-12T17:29:02.408Z,11.73
2017-05-12T17:31:37.575Z,11.57
2017-05-12T17:34:12.875Z,12.17
2017-05-12T17:36:48.020Z,12.68
2017-05-12T17:39:23.220Z,13.55
2017-05-12T17:41:59.074Z,12.78
2017-05-12T17:44:34.440Z,11.65
2017-05-12T17:47:09.565Z,12.18
2017-05-12T17:49:44.765Z,20.22
2017-05-12T17:52:20.039Z,13.10
2017-05-12T17:54:55.172Z,13.55
2017-05-12T17:57:31.095Z,13.23
2017-05-12T18:00:06.416Z,12.82
2017-05-12T18:02:41.622Z,12.12
2017-05-12T18:05:17.567Z,10.75
2017-05-12T18:07:52.867Z,12.98
2017-05-12T18:10:28.042Z,14.00
2017-05-12T18:13:03.264Z,14.57
2017-05-12T18:15:38.611Z,10.40
2017-05-12T18:18:13.893Z,10.42
2017-05-12T18:20:49.084Z,11.63
2017-05-12T18:23:24.323Z,12.17
2017-05-12T18:25:59.912Z,13.07
2017-05-12T18:28:36.946Z,12.98
2017-05-12T18:31:12.241Z,11.50
2017-05-12T18:33:47.391Z,15.90
2017-05-12T18:36:22.562Z,14.65
2017-05-12T18:38:58.471Z,11.35
2017-05-12T18:41:33.577Z,11.88
2017-05-12T18:44:08.847Z,10.47
2017-05-12T18:46:44.097Z,11.30
2017-05-12T18:49:19.347Z,10.62
2017-05-12T18:51:54.581Z,14.20
2017-05-12T18:54:29.759Z,11.42
2017-05-12T18:57:05.025Z,12.13
2017-05-12T18:59:40.340Z,14.23
2017-05-12T19:02:15.776Z,10.18
2017-05-12T19:04:51.917Z,12.57
2017-05-12T19:07:27.371Z,13.73
2017-05-12T19:10:02.688Z,12.08
2017-05-12T19:12:38.254Z,10.35
2017-05-12T19:15:13.610Z,11.93
2017-05-12T19:17:48.905Z,10.55
2017-05-12T19:20:24.190Z,11.02
2017-05-12T19:22:59.523Z,11.67
2017-05-12T19:25:36.130Z,11.78
2017-05-12T19:28:11.390Z,10.25
2017-05-12T19:30:47.527Z,11.93
2017-05-12T19:33:25.540Z,11.32
2017-05-12T19:36:00.691Z,11.28
2017-05-12T19:38:36.016Z,8.50
2017-05-12T19:41:11.257Z,12.38
2017-05-12T19:43:46.594Z,14.02
2017-05-12T19:46:21.824Z,12.88
2017-05-12T19:48:57.026Z,11.87
2017-05-12T19:51:32.961Z,13.62
2017-05-12T19:54:08.985Z,13.58
2017-05-12T19:56:45.352Z,16.05
2017-05-12T19:59:20.761Z,9.03
2017-05-12T20:01:56.871Z,11.28
2017-05-12T20:04:33.962Z,9.37
2017-05-12T20:07:09.152Z,10.77
2017-05-12T20:09:44.363Z,10.48
2017-05-12T20:12:19.633Z,13.77
2017-05-12T20:14:58.138Z,12.85
2017-05-12T20:17:33.355Z,8.23
2017-05-12T20:20:09.272Z,9.47
2017-05-12T20:22:45.171Z,9.00
2017-05-12T20:25:20.325Z,10.58
2017-05-12T20:27:57.980Z,10.55
2017-05-12T20:30:33.819Z,13.60
2017-05-12T20:33:09.122Z,13.37
2017-05-12T20:35:45.012Z,11.22
2017-05-12T20:38:20.491Z,12.80
2017-05-12T20:40:55.613Z,12.32
2017-05-12T20:43:31.711Z,10.57
2017-05-12T20:46:06.785Z,10.40
2017-05-12T20:48:43.792Z,9.70
2017-05-12T20:51:18.836Z,9.17
2017-05-12T20:53:54.265Z,9.13
2017-05-12T20:56:29.492Z,8.88
2017-05-12T20:59:05.212Z,13.48
2017-05-12T21:01:40.975Z,10.50
2017-05-12T21:04:16.350Z,9.07
2017-05-12T21:06:52.190Z,8.50
2017-05-12T21:09:27.281Z,10.42
2017-05-12T21:12:02.489Z,10.32
2017-05-12T21:14:38.569Z,9.77
2017-05-12T21:17:13.722Z,12.27
2017-05-12T21:19:49.203Z,12.68
2017-05-12T21:22:24.255Z,8.85
2017-05-12T21:24:59.693Z,9.60
2017-05-12T21:27:35.539Z,8.73
2017-05-12T21:30:10.891Z,9.40
2017-05-12T21:32:46.104Z,9.50
2017-05-12T21:35:21.438Z,10.02
2017-05-12T21:37:57.367Z,8.20
2017-05-12T21:40:32.451Z,14.63
2017-05-12T21:43:07.708Z,12.42
2017-05-12T21:45:43.187Z,11.93
2017-05-12T21:48:18.399Z,11.97
2017-05-12T21:50:53.723Z,12.62
2017-05-12T21:53:28.920Z,10.02
2017-05-12T21:56:04.231Z,10.22
2017-05-12T21:58:39.383Z,12.98
2017-05-12T22:01:15.189Z,9.77
2017-05-12T22:03:50.313Z,9.05
2017-05-12T22:06:25.405Z,9.90
2017-05-12T22:09:00.554Z,10.07
2017-05-12T22:11:35.663Z,9.57
2017-05-12T22:14:10.846Z,8.92
2017-05-12T22:16:46.701Z,9.57
2017-05-12T22:19:21.902Z,9.77
2017-05-12T22:21:56.944Z,14.68
2017-05-12T22:24:32.225Z,14.48
2017-05-12T22:27:07.679Z,9.07
2017-05-12T22:29:42.826Z,13.37
2017-05-12T22:32:17.955Z,14.08
2017-05-12T22:34:53.208Z,10.83
2017-05-12T22:37:29.151Z,10.40
2017-05-12T22:40:04.418Z,11.58
2017-05-12T22:42:39.639Z,12.07
2017-05-12T22:45:14.890Z,9.82
2017-05-12T22:47:50.043Z,14.12
2017-05-12T22:50:25.454Z,11.25
2017-05-12T22:53:00.599Z,10.85
2017-05-12T22:55:36.116Z,12.45
2017-05-12T22:58:11.266Z,11.85
2017-05-12T23:00:46.579Z,8.08
2017-05-12T23:03:22.523Z,10.70
2017-05-12T23:05:57.608Z,11.48
2017-05-12T23:08:32.790Z,16.67
2017-05-12T23:11:08.090Z,13.92
2017-05-12T23:13:43.240Z,8.63
2017-05-12T23:16:18.418Z,9.92
2017-05-12T23:18:53.563Z,7.63
2017-05-12T23:21:28.986Z,12.70
2017-05-12T23:24:04.116Z,9.03
2017-05-12T23:26:39.464Z,8.43
2017-05-12T23:29:14.632Z,8.98
2017-05-12T23:31:50.459Z,11.77
2017-05-12T23:34:25.730Z,8.48
2017-05-12T23:37:00.773Z,11.22
2017-05-12T23:39:35.997Z,8.08
2017-05-12T23:42:11.149Z,11.13
2017-05-12T23:44:46.318Z,11.20
2017-05-12T23:47:21.556Z,11.85
2017-05-12T23:49:57.518Z,9.18
2017-05-12T23:52:32.878Z,11.23
2017-05-12T23:55:08.102Z,10.98
2017-05-12T23:57:43.671Z,10.25
